createdAt,value
2023-05-23T00:01:54.724Z,0.20
2023-05-23T00:03:55.713Z,0.20
2023-05-23T00:05:58.057Z,2.47
2023-05-23T00:08:00.225Z,0.60
2023-05-23T00:10:01.134Z,0.40
2023-05-23T00:12:02.080Z,0.62
2023-05-23T00:14:02.908Z,1.90
2023-05-23T00:16:03.955Z,0.30
2023-05-23T00:18:04.931Z,0.28
2023-05-23T00:20:08.288Z,2.92
2023-05-23T00:22:10.102Z,0.72
2023-05-23T00:24:10.969Z,0.30
2023-05-23T00:26:12.068Z,0.60
2023-05-23T00:28:13.880Z,0.65
2023-05-23T00:30:14.930Z,0.20
2023-05-23T00:32:15.841Z,0.20
2023-05-23T00:34:16.949Z,1.95
2023-05-23T00:36:18.401Z,1.35
2023-05-23T00:38:19.387Z,1.17
2023-05-23T00:40:22.302Z,2.47
2023-05-23T00:42:23.220Z,0.28
2023-05-23T00:44:24.127Z,0.57
2023-05-23T00:46:25.874Z,0.20
2023-05-23T00:48:26.922Z,0.78
2023-05-23T00:50:31.230Z,0.45
2023-05-23T00:52:33.775Z,0.90
2023-05-23T00:54:35.818Z,1.05
2023-05-23T00:56:38.048Z,0.33
2023-05-23T00:58:40.156Z,0.40
2023-05-23T01:00:41.609Z,1.20
2023-05-23T01:02:44.418Z,0.30
2023-05-23T01:04:45.364Z,0.75
2023-05-23T01:06:48.197Z,1.07
2023-05-23T01:08:49.271Z,1.77
2023-05-23T01:10:50.693Z,0.30
2023-05-23T01:12:59.328Z,0.78
2023-05-23T01:15:13.368Z,0.20
2023-05-23T01:17:16.186Z,0.50
2023-05-23T01:19:19.924Z,0.55
2023-05-23T01:21:22.259Z,0.20
2023-05-23T01:23:25.177Z,0.20
2023-05-23T01:25:45.979Z,0.20
2023-05-23T01:27:49.724Z,0.33
2023-05-23T01:29:52.436Z,0.42
2023-05-23T01:31:54.987Z,0.30
2023-05-23T01:33:55.997Z,0.20
2023-05-23T01:35:58.014Z,0.35
2023-05-23T01:37:58.952Z,0.50
2023-05-23T01:40:00.020Z,0.13
2023-05-23T01:42:01.063Z,0.20
2023-05-23T01:44:02.571Z,0.75
2023-05-23T01:46:04.038Z,0.33
2023-05-23T01:48:05.492Z,0.30
2023-05-23T01:50:08.303Z,0.68
2023-05-23T01:52:09.485Z,0.40
2023-05-23T01:54:11.197Z,0.20
2023-05-23T01:56:12.920Z,0.72
2023-05-23T01:58:13.992Z,0.20
2023-05-23T02:00:15.074Z,0.20
2023-05-23T02:02:16.064Z,0.33
2023-05-23T02:04:17.142Z,0.78
2023-05-23T02:06:18.139Z,2.05
2023-05-23T02:08:22.025Z,0.53
2023-05-23T02:10:22.988Z,1.35
2023-05-23T02:12:23.991Z,0.40
2023-05-23T02:14:25.820Z,1.10
2023-05-23T02:16:26.893Z,0.30
2023-05-23T02:18:29.174Z,0.88
2023-05-23T02:20:30.080Z,1.75
2023-05-23T02:22:31.187Z,3.72
2023-05-23T02:24:32.074Z,0.20
2023-05-23T02:26:32.991Z,1.02
2023-05-23T02:28:33.936Z,1.20
2023-05-23T02:30:34.845Z,0.85
2023-05-23T02:32:37.186Z,0.20
2023-05-23T02:34:38.288Z,0.20
2023-05-23T02:36:39.702Z,2.02
2023-05-23T02:38:40.813Z,0.28
2023-05-23T02:40:41.809Z,0.30
2023-05-23T02:42:42.727Z,2.00
2023-05-23T02:44:43.734Z,0.20
2023-05-23T02:46:45.242Z,0.20
2023-05-23T02:48:46.195Z,5.80
2023-05-23T02:50:47.123Z,0.72
2023-05-23T02:52:48.260Z,0.28
2023-05-23T02:54:49.676Z,0.78
2023-05-23T02:56:51.611Z,1.30
2023-05-23T02:58:52.657Z,0.72
2023-05-23T03:00:53.574Z,1.72
2023-05-23T03:02:54.642Z,1.05
2023-05-23T03:04:56.788Z,0.85
2023-05-23T03:06:59.053Z,0.47
2023-05-23T03:09:00.618Z,0.90
2023-05-23T03:11:01.739Z,4.05
2023-05-23T03:13:02.807Z,0.45
2023-05-23T03:15:04.723Z,0.40
2023-05-23T03:17:06.229Z,1.20
2023-05-23T03:19:07.238Z,0.20
2023-05-23T03:21:08.964Z,0.50
2023-05-23T03:23:09.972Z,0.30
2023-05-23T03:25:10.939Z,0.20
2023-05-23T03:27:12.115Z,0.30
2023-05-23T03:29:13.112Z,0.20
2023-05-23T03:31:14.080Z,0.62
2023-05-23T03:33:15.351Z,0.45
2023-05-23T03:35:16.488Z,1.75
2023-05-23T03:37:17.622Z,0.85
2023-05-23T03:39:18.976Z,0.20
2023-05-23T03:41:20.816Z,2.47
2023-05-23T03:43:21.883Z,0.20
2023-05-23T03:45:22.952Z,0.42
2023-05-23T03:47:23.957Z,0.20
2023-05-23T03:49:25.505Z,1.57
2023-05-23T03:51:27.478Z,0.60
2023-05-23T03:53:28.555Z,0.95
2023-05-23T03:55:31.872Z,0.20
2023-05-23T03:57:33.119Z,1.60
2023-05-23T03:59:34.595Z,0.78
2023-05-23T04:01:37.098Z,2.40
2023-05-23T04:03:38.426Z,0.75
2023-05-23T04:05:39.779Z,0.93
2023-05-23T04:07:42.055Z,0.40
2023-05-23T04:09:43.827Z,0.82
2023-05-23T04:11:46.732Z,0.55
2023-05-23T04:13:47.812Z,1.55
2023-05-23T04:15:48.807Z,0.40
2023-05-23T04:17:50.758Z,1.45
2023-05-23T04:19:52.264Z,2.35
2023-05-23T04:21:53.278Z,0.35
2023-05-23T04:23:54.175Z,2.65
2023-05-23T04:25:56.638Z,1.77
2023-05-23T04:28:02.171Z,1.25
2023-05-23T04:30:03.426Z,1.10
2023-05-23T04:32:05.689Z,2.60
2023-05-23T04:34:07.400Z,4.75
2023-05-23T04:36:10.221Z,3.80
2023-05-23T04:38:13.093Z,0.35
2023-05-23T04:40:14.001Z,1.95
2023-05-23T04:42:16.865Z,6.60
2023-05-23T04:44:26.142Z,8.33
2023-05-23T04:46:46.948Z,2.85
2023-05-23T04:48:49.879Z,4.22
2023-05-23T04:50:51.916Z,6.10
2023-05-23T04:52:52.920Z,1.95
2023-05-23T04:54:55.288Z,5.78
2023-05-23T04:56:56.641Z,6.42
2023-05-23T04:58:59.536Z,5.05
2023-05-23T05:01:01.446Z,5.25
2023-05-23T05:03:02.554Z,5.87
2023-05-23T05:05:04.935Z,10.93
2023-05-23T05:07:05.863Z,4.58
2023-05-23T05:09:07.939Z,4.67
2023-05-23T05:11:09.804Z,3.55
2023-05-23T05:13:11.076Z,3.60
2023-05-23T05:15:14.004Z,0.30
2023-05-23T05:17:16.143Z,1.15
2023-05-23T05:19:27.781Z,3.08
2023-05-23T05:21:28.831Z,15.72
2023-05-23T05:23:30.360Z,3.25
2023-05-23T05:25:33.767Z,4.80
2023-05-23T05:27:37.297Z,6.45
2023-05-23T05:29:39.925Z,5.17
2023-05-23T05:31:41.099Z,6.90
2023-05-23T05:33:45.074Z,12.20
2023-05-23T05:35:47.786Z,1.98
2023-05-23T05:37:49.511Z,4.00
2023-05-23T05:39:50.464Z,11.05
2023-05-23T05:41:51.888Z,0.23
2023-05-23T05:43:53.217Z,5.47
2023-05-23T05:45:54.920Z,5.92
2023-05-23T05:47:57.957Z,7.42
2023-05-23T05:49:59.350Z,12.43
2023-05-23T05:52:00.277Z,6.53
2023-05-23T05:54:01.199Z,9.65
2023-05-23T05:56:02.474Z,5.83
2023-05-23T05:58:04.099Z,8.73
2023-05-23T06:00:09.577Z,9.58
2023-05-23T06:02:12.466Z,10.08
2023-05-23T06:04:14.009Z,9.58
2023-05-23T06:06:15.693Z,4.35
2023-05-23T06:08:16.735Z,11.60
2023-05-23T06:10:18.287Z,6.10
2023-05-23T06:12:19.397Z,6.15
2023-05-23T06:14:20.473Z,9.58
2023-05-23T06:16:22.292Z,15.70
2023-05-23T06:18:23.875Z,6.22
2023-05-23T06:20:25.318Z,12.75
2023-05-23T06:22:26.781Z,17.65
2023-05-23T06:24:27.957Z,8.53
2023-05-23T06:26:28.897Z,7.90
2023-05-23T06:28:29.928Z,6.20
2023-05-23T06:30:30.748Z,9.08
2023-05-23T06:32:31.642Z,11.38
2023-05-23T06:34:32.534Z,7.35
2023-05-23T06:36:33.953Z,9.28
2023-05-23T06:38:34.777Z,11.15
2023-05-23T06:40:35.722Z,10.63
2023-05-23T06:42:37.050Z,9.63
2023-05-23T06:44:40.130Z,10.72
2023-05-23T06:46:42.374Z,12.20
2023-05-23T06:48:43.440Z,13.30
2023-05-23T06:50:44.450Z,16.93
2023-05-23T06:52:49.267Z,9.50
2023-05-23T06:54:50.611Z,2.30
2023-05-23T06:56:52.400Z,7.08
2023-05-23T06:58:54.255Z,7.60
2023-05-23T07:00:56.195Z,2.55
2023-05-23T07:03:02.829Z,2.60
2023-05-23T07:05:04.983Z,11.20
2023-05-23T07:07:13.810Z,2.85
2023-05-23T07:09:15.342Z,1.47
2023-05-23T07:11:16.501Z,1.95
2023-05-23T07:13:19.352Z,8.00
2023-05-23T07:15:20.376Z,9.00
2023-05-23T07:17:23.244Z,8.05
2023-05-23T07:19:24.157Z,7.60
2023-05-23T07:21:25.356Z,1.42
2023-05-23T07:23:26.201Z,1.60
2023-05-23T07:25:27.317Z,8.05
2023-05-23T07:27:28.150Z,3.20
2023-05-23T07:29:29.212Z,3.67
2023-05-23T07:31:30.534Z,2.72
2023-05-23T07:33:33.839Z,0.72
2023-05-23T07:35:36.573Z,1.60
2023-05-23T07:37:37.721Z,1.65
2023-05-23T07:39:38.658Z,1.90
2023-05-23T07:41:39.918Z,0.72
2023-05-23T07:43:41.008Z,2.33
2023-05-23T07:45:42.710Z,1.15
2023-05-23T07:47:43.682Z,3.25
2023-05-23T07:49:46.798Z,3.08
2023-05-23T07:51:47.957Z,1.07
2023-05-23T07:53:49.089Z,1.10
2023-05-23T07:55:51.833Z,2.35
2023-05-23T07:57:55.698Z,2.10
2023-05-23T07:59:57.034Z,2.85
2023-05-23T08:01:58.511Z,4.17
2023-05-23T08:04:01.490Z,0.95
2023-05-23T08:06:04.392Z,2.58
2023-05-23T08:08:05.617Z,2.45
2023-05-23T08:10:07.269Z,2.55
2023-05-23T08:12:08.696Z,2.15
2023-05-23T08:14:09.927Z,3.62
2023-05-23T08:16:12.890Z,2.67
2023-05-23T08:18:15.510Z,1.47
2023-05-23T08:20:16.573Z,1.72
2023-05-23T08:22:19.396Z,1.17
2023-05-23T08:24:20.821Z,2.30
2023-05-23T08:26:22.377Z,2.22
2023-05-23T08:28:24.197Z,3.30
2023-05-23T08:30:27.629Z,1.00
2023-05-23T08:32:28.940Z,1.27
2023-05-23T08:34:30.709Z,1.98
2023-05-23T08:36:33.541Z,0.53
2023-05-23T08:38:34.685Z,2.17
2023-05-23T08:40:41.651Z,2.47
2023-05-23T08:42:44.768Z,2.70
2023-05-23T08:44:46.444Z,2.02
2023-05-23T08:46:49.272Z,3.22
2023-05-23T08:48:53.964Z,2.20
2023-05-23T08:50:55.089Z,3.58
2023-05-23T08:52:57.172Z,2.02
2023-05-23T08:55:00.063Z,0.72
2023-05-23T08:57:02.153Z,2.45
2023-05-23T08:59:04.499Z,1.65
2023-05-23T09:01:05.754Z,2.30
2023-05-23T09:03:08.299Z,3.72
2023-05-23T09:05:14.093Z,2.20
2023-05-23T09:07:16.062Z,2.05
2023-05-23T09:09:17.425Z,1.85
2023-05-23T09:11:20.450Z,1.20
2023-05-23T09:13:21.491Z,2.02
2023-05-23T09:15:23.341Z,1.72
2023-05-23T09:17:24.382Z,1.25
2023-05-23T09:19:25.789Z,1.15
2023-05-23T09:21:31.199Z,0.68
2023-05-23T09:23:38.820Z,1.82
2023-05-23T09:25:41.723Z,3.22
2023-05-23T09:27:44.264Z,1.40
2023-05-23T09:29:47.095Z,0.30
2023-05-23T09:31:47.978Z,1.32
2023-05-23T09:33:49.559Z,2.75
2023-05-23T09:35:51.318Z,2.17
2023-05-23T09:37:54.852Z,1.52
2023-05-23T09:39:56.140Z,1.90
2023-05-23T09:41:58.537Z,0.68
2023-05-23T09:44:01.386Z,1.05
2023-05-23T09:46:11.730Z,1.45
2023-05-23T09:48:15.559Z,1.15
2023-05-23T09:50:16.899Z,3.25
2023-05-23T09:52:19.494Z,2.05
2023-05-23T09:54:20.558Z,1.20
2023-05-23T09:56:22.796Z,3.25
2023-05-23T09:58:25.540Z,2.62
2023-05-23T10:00:27.765Z,2.52
2023-05-23T10:02:31.131Z,2.75
2023-05-23T10:04:33.828Z,1.72
2023-05-23T10:06:36.715Z,1.70
2023-05-23T10:08:42.309Z,2.35
2023-05-23T10:10:45.332Z,1.92
2023-05-23T10:12:48.308Z,2.85
2023-05-23T10:14:51.131Z,1.80
2023-05-23T10:17:09.827Z,2.22
2023-05-23T10:19:18.570Z,2.52
2023-05-23T10:21:21.464Z,2.92
2023-05-23T10:23:22.592Z,3.77
2023-05-23T10:25:25.072Z,2.85
2023-05-23T10:27:26.921Z,2.58
2023-05-23T10:29:28.550Z,1.52
2023-05-23T10:31:29.553Z,2.45
2023-05-23T10:33:34.342Z,2.08
2023-05-23T10:35:43.108Z,2.45
2023-05-23T10:37:58.142Z,3.35
2023-05-23T10:40:07.107Z,1.57
2023-05-23T10:42:10.032Z,1.27
2023-05-23T10:44:12.991Z,1.47
2023-05-23T10:46:14.326Z,1.87
2023-05-23T10:48:26.119Z,0.57
2023-05-23T10:50:33.749Z,1.85
2023-05-23T10:52:36.595Z,1.67
2023-05-23T10:54:44.994Z,1.35
2023-05-23T10:56:46.011Z,2.00
2023-05-23T10:58:48.870Z,0.98
2023-05-23T11:00:54.109Z,1.45
2023-05-23T11:02:56.985Z,0.67
2023-05-23T11:05:16.629Z,1.65
2023-05-23T11:07:30.278Z,2.35
2023-05-23T11:09:31.210Z,1.40
2023-05-23T11:11:52.046Z,0.70
2023-05-23T11:13:56.083Z,1.47
2023-05-23T11:15:57.021Z,1.57
2023-05-23T11:17:57.986Z,0.25
2023-05-23T11:20:00.759Z,0.95
2023-05-23T11:22:02.294Z,0.93
2023-05-23T11:24:03.425Z,0.82
2023-05-23T11:26:04.486Z,1.87
2023-05-23T11:28:05.547Z,0.98
2023-05-23T11:30:07.476Z,2.60
2023-05-23T11:32:16.843Z,1.42
2023-05-23T11:34:14.988Z,1.00
2023-05-23T11:36:16.035Z,2.30
2023-05-23T11:38:17.485Z,0.20
2023-05-23T11:40:20.409Z,1.60
2023-05-23T11:42:22.034Z,0.62
2023-05-23T11:44:22.962Z,1.75
2023-05-23T11:46:23.944Z,1.15
2023-05-23T11:48:24.947Z,1.17
2023-05-23T11:50:25.912Z,1.40
2023-05-23T11:52:28.763Z,2.55
2023-05-23T11:54:30.213Z,0.40
2023-05-23T11:56:31.343Z,2.50
2023-05-23T11:58:37.172Z,1.65
2023-05-23T12:00:40.193Z,0.78
2023-05-23T12:02:42.207Z,1.27
2023-05-23T12:04:43.226Z,1.77
2023-05-23T12:06:48.054Z,1.05
2023-05-23T12:08:48.985Z,1.55
2023-05-23T12:10:53.478Z,2.33
2023-05-23T12:12:54.784Z,0.57
2023-05-23T12:14:56.818Z,1.15
2023-05-23T12:16:57.769Z,1.80
2023-05-23T12:18:59.241Z,1.10
2023-05-23T12:21:02.436Z,1.25
2023-05-23T12:23:03.818Z,1.55
2023-05-23T12:25:06.978Z,1.75
2023-05-23T12:27:09.094Z,2.08
2023-05-23T12:29:10.226Z,1.05
2023-05-23T12:31:21.027Z,1.27
2023-05-23T12:33:22.511Z,1.05
2023-05-23T12:35:24.955Z,1.72
2023-05-23T12:37:26.099Z,0.78
2023-05-23T12:39:27.571Z,1.02
2023-05-23T12:41:28.448Z,1.87
2023-05-23T12:43:29.703Z,0.82
2023-05-23T12:45:35.804Z,1.60
2023-05-23T12:47:36.679Z,1.67
2023-05-23T12:49:37.955Z,1.98
2023-05-23T12:51:39.582Z,1.00
2023-05-23T12:53:40.537Z,2.12
2023-05-23T12:55:41.707Z,1.42
2023-05-23T12:57:42.771Z,1.45
2023-05-23T12:59:43.695Z,2.37
2023-05-23T13:01:44.750Z,2.05
2023-05-23T13:03:45.723Z,1.72
2023-05-23T13:05:46.686Z,2.02
2023-05-23T13:07:47.720Z,1.40
2023-05-23T13:09:48.638Z,1.62
2023-05-23T13:11:49.567Z,1.82
2023-05-23T13:13:50.632Z,1.27
2023-05-23T13:15:51.921Z,2.10
2023-05-23T13:17:53.027Z,1.15
2023-05-23T13:19:53.963Z,2.02
2023-05-23T13:21:54.881Z,1.67
2023-05-23T13:23:55.854Z,1.52
2023-05-23T13:25:57.296Z,1.82
2023-05-23T13:27:58.222Z,1.75
2023-05-23T13:29:59.048Z,1.90
2023-05-23T13:32:00.238Z,0.90
2023-05-23T13:34:01.149Z,0.80
2023-05-23T13:36:02.187Z,1.50
2023-05-23T13:38:03.108Z,1.65
2023-05-23T13:40:04.444Z,1.75
2023-05-23T13:42:07.167Z,1.62
2023-05-23T13:44:08.224Z,3.83
2023-05-23T13:46:09.270Z,1.80
2023-05-23T13:48:10.244Z,1.25
2023-05-23T13:50:11.427Z,1.37
2023-05-23T13:52:12.335Z,1.57
2023-05-23T13:54:13.807Z,2.05
2023-05-23T13:56:14.834Z,2.72
2023-05-23T13:58:15.762Z,2.05
2023-05-23T14:00:16.867Z,1.95
2023-05-23T14:02:17.922Z,1.52
2023-05-23T14:04:19.252Z,0.78
2023-05-23T14:06:20.185Z,0.72
2023-05-23T14:08:21.333Z,2.00
2023-05-23T14:10:22.751Z,2.33
2023-05-23T14:12:23.675Z,2.50
2023-05-23T14:14:26.206Z,0.98
2023-05-23T14:16:27.310Z,0.88
2023-05-23T14:18:28.296Z,1.45
2023-05-23T14:20:29.413Z,2.10
2023-05-23T14:22:30.627Z,1.27
2023-05-23T14:24:31.586Z,1.80
2023-05-23T14:26:32.927Z,1.72
2023-05-23T14:28:33.841Z,1.45
2023-05-23T14:30:34.754Z,1.12
2023-05-23T14:32:37.837Z,1.92
2023-05-23T14:34:38.814Z,1.57
2023-05-23T14:36:39.725Z,0.98
2023-05-23T14:38:41.179Z,0.68
2023-05-23T14:40:44.154Z,1.60
2023-05-23T14:42:45.141Z,0.98
2023-05-23T14:44:46.126Z,1.98
2023-05-23T14:46:48.934Z,1.85
2023-05-23T14:48:49.855Z,1.05
2023-05-23T14:50:50.806Z,1.07
2023-05-23T14:52:51.651Z,1.60
2023-05-23T14:54:52.613Z,0.95
2023-05-23T14:56:53.719Z,2.30
2023-05-23T14:58:56.495Z,1.67
2023-05-23T15:00:57.432Z,0.82
2023-05-23T15:02:58.508Z,1.73
2023-05-23T15:04:59.407Z,2.00
2023-05-23T15:07:00.320Z,1.32
2023-05-23T15:09:01.749Z,1.95
2023-05-23T15:11:02.696Z,1.35
2023-05-23T15:13:03.608Z,1.92
2023-05-23T15:15:04.711Z,1.57
2023-05-23T15:17:08.530Z,2.20
2023-05-23T15:19:09.576Z,2.37
2023-05-23T15:21:11.617Z,1.57
2023-05-23T15:23:12.536Z,2.47
2023-05-23T15:25:13.423Z,1.42
2023-05-23T15:27:20.657Z,2.02
2023-05-23T15:29:17.560Z,1.90
2023-05-23T15:31:18.489Z,2.35
2023-05-23T15:33:21.179Z,1.50
2023-05-23T15:35:22.051Z,1.25
2023-05-23T15:37:22.968Z,1.05
2023-05-23T15:39:25.560Z,1.40
2023-05-23T15:41:27.237Z,2.20
2023-05-23T15:43:28.159Z,3.30
2023-05-23T15:45:29.120Z,2.40
2023-05-23T15:47:30.131Z,1.62
2023-05-23T15:49:31.085Z,2.30
2023-05-23T15:51:32.088Z,1.77
2023-05-23T15:53:37.185Z,1.00
2023-05-23T15:55:36.783Z,1.17
2023-05-23T15:57:37.852Z,1.98
2023-05-23T15:59:38.766Z,1.55
2023-05-23T16:01:41.032Z,1.85
2023-05-23T16:03:42.114Z,1.40
2023-05-23T16:05:43.331Z,1.67
2023-05-23T16:07:44.435Z,1.82
2023-05-23T16:09:45.352Z,1.75
2023-05-23T16:11:46.322Z,2.25
2023-05-23T16:13:47.434Z,1.67
2023-05-23T16:15:48.403Z,2.17
2023-05-23T16:17:49.334Z,1.15
2023-05-23T16:19:50.229Z,0.95
2023-05-23T16:21:51.054Z,1.02
2023-05-23T16:23:52.211Z,1.17
2023-05-23T16:25:53.084Z,0.30
2023-05-23T16:27:56.601Z,3.02
2023-05-23T16:29:57.571Z,2.58
2023-05-23T16:31:58.621Z,1.47
2023-05-23T16:33:59.612Z,1.17
2023-05-23T16:36:00.547Z,1.40
2023-05-23T16:38:02.707Z,1.37
2023-05-23T16:40:04.262Z,2.17
2023-05-23T16:42:05.433Z,1.85
2023-05-23T16:44:06.427Z,1.05
2023-05-23T16:46:07.386Z,1.67
2023-05-23T16:48:10.321Z,1.55
2023-05-23T16:50:11.245Z,0.35
2023-05-23T16:52:12.112Z,1.75
2023-05-23T16:54:12.995Z,1.37
2023-05-23T16:56:14.055Z,2.08
2023-05-23T16:58:15.979Z,2.87
2023-05-23T17:00:19.584Z,1.85
2023-05-23T17:02:20.613Z,1.25
2023-05-23T17:04:21.688Z,1.15
2023-05-23T17:06:22.592Z,1.95
2023-05-23T17:08:23.409Z,1.35
2023-05-23T17:10:24.442Z,1.05
2023-05-23T17:12:25.852Z,1.72
2023-05-23T17:14:26.766Z,1.22
2023-05-23T17:16:29.425Z,0.98
2023-05-23T17:18:30.328Z,1.20
2023-05-23T17:20:31.350Z,0.60
2023-05-23T17:22:32.190Z,0.85
2023-05-23T17:24:33.096Z,1.45
2023-05-23T17:26:33.982Z,2.02
2023-05-23T17:28:37.721Z,1.77
2023-05-23T17:30:38.557Z,1.50
2023-05-23T17:32:39.914Z,2.12
2023-05-23T17:34:40.933Z,2.90
2023-05-23T17:36:41.746Z,2.00
2023-05-23T17:38:42.683Z,2.17
2023-05-23T17:40:43.783Z,2.12
2023-05-23T17:42:45.366Z,2.50
2023-05-23T17:44:46.275Z,0.95
2023-05-23T17:46:47.137Z,1.65
2023-05-23T17:48:48.386Z,2.65
2023-05-23T17:50:49.329Z,2.58
2023-05-23T17:52:50.275Z,1.12
2023-05-23T17:54:51.198Z,2.05
2023-05-23T17:56:52.675Z,2.10
2023-05-23T17:58:53.618Z,2.12
2023-05-23T18:00:54.715Z,2.58
2023-05-23T18:02:55.840Z,1.95
2023-05-23T18:04:56.830Z,1.98
2023-05-23T18:06:57.743Z,2.20
2023-05-23T18:08:58.581Z,1.50
2023-05-23T18:10:59.489Z,0.65
2023-05-23T18:13:00.702Z,0.50
2023-05-23T18:15:01.679Z,1.12
2023-05-23T18:17:02.590Z,2.40
2023-05-23T18:19:04.712Z,1.25
2023-05-23T18:21:06.461Z,2.10
2023-05-23T18:23:07.650Z,1.37
2023-05-23T18:25:08.704Z,1.37
2023-05-23T18:27:09.696Z,1.62
2023-05-23T18:29:10.724Z,1.47
2023-05-23T18:31:11.659Z,2.47
2023-05-23T18:33:12.693Z,2.75
2023-05-23T18:35:14.198Z,1.10
2023-05-23T18:37:15.185Z,1.65
2023-05-23T18:39:16.227Z,1.75
2023-05-23T18:41:17.134Z,1.37
2023-05-23T18:43:17.961Z,2.08
2023-05-23T18:45:18.999Z,1.35
2023-05-23T18:47:19.861Z,1.27
2023-05-23T18:51:22.181Z,1.42
2023-05-23T18:53:23.102Z,1.62
2023-05-23T18:55:24.010Z,1.72
2023-05-23T18:57:25.406Z,0.95
2023-05-23T18:59:26.323Z,0.95
2023-05-23T19:01:27.263Z,2.37
2023-05-23T19:03:28.340Z,2.17
2023-05-23T19:05:29.528Z,2.27
2023-05-23T19:07:30.480Z,2.55
2023-05-23T19:09:31.412Z,2.37
2023-05-23T19:11:32.333Z,1.22
2023-05-23T19:13:33.149Z,1.95
2023-05-23T19:15:34.104Z,1.87
2023-05-23T19:17:35.547Z,1.67
2023-05-23T19:19:38.013Z,2.30
2023-05-23T19:21:38.988Z,0.60
2023-05-23T19:23:39.894Z,1.12
2023-05-23T19:25:41.601Z,1.30
2023-05-23T19:27:42.582Z,2.25
2023-05-23T19:29:43.697Z,1.07
2023-05-23T19:31:44.704Z,1.62
2023-05-23T19:33:45.686Z,1.77
2023-05-23T19:35:46.605Z,2.22
2023-05-23T19:37:48.514Z,1.42
2023-05-23T19:39:49.584Z,0.40
2023-05-23T19:41:50.490Z,1.55
2023-05-23T19:43:51.412Z,0.88
2023-05-23T19:45:52.434Z,2.25
2023-05-23T19:47:53.534Z,0.37
2023-05-23T19:49:54.802Z,1.92
2023-05-23T19:51:55.741Z,1.20
2023-05-23T19:53:56.679Z,1.17
2023-05-23T19:55:57.778Z,1.35
2023-05-23T19:57:59.302Z,1.95
2023-05-23T20:00:00.224Z,0.20
2023-05-23T20:02:01.083Z,1.42
2023-05-23T20:04:02.037Z,0.88
2023-05-23T20:06:08.271Z,1.22
2023-05-23T20:10:10.552Z,2.65
2023-05-23T20:12:11.418Z,1.75
2023-05-23T20:14:12.330Z,1.42
2023-05-23T20:16:13.255Z,0.85
2023-05-23T20:18:14.268Z,2.08
2023-05-23T20:20:15.182Z,1.12
2023-05-23T20:22:16.131Z,1.98
2023-05-23T20:24:16.991Z,0.70
2023-05-23T20:26:17.893Z,2.20
2023-05-23T20:28:18.858Z,2.75
2023-05-23T20:30:19.765Z,2.40
2023-05-23T20:32:20.707Z,1.95
2023-05-23T20:34:21.725Z,1.67
2023-05-23T20:36:22.782Z,2.40
2023-05-23T20:38:24.084Z,1.80
2023-05-23T20:40:26.719Z,2.05
2023-05-23T20:42:29.441Z,1.70
2023-05-23T20:44:30.951Z,1.62
2023-05-23T20:46:32.826Z,3.05
2023-05-23T20:48:33.733Z,2.62
2023-05-23T20:50:35.840Z,1.37
2023-05-23T20:52:38.481Z,2.50
2023-05-23T20:54:41.291Z,2.98
2023-05-23T20:56:42.235Z,1.37
2023-05-23T20:58:45.334Z,2.62
2023-05-23T21:00:46.310Z,0.20
2023-05-23T21:02:47.375Z,1.52
2023-05-23T21:04:48.400Z,0.20
2023-05-23T21:06:49.344Z,2.35
2023-05-23T21:08:50.174Z,1.55
2023-05-23T21:10:53.488Z,1.27
2023-05-23T21:12:53.926Z,0.60
2023-05-23T21:14:56.357Z,1.17
2023-05-23T21:16:57.332Z,0.72
2023-05-23T21:18:58.251Z,1.80
2023-05-23T21:20:59.138Z,5.58
2023-05-23T21:23:00.091Z,0.65
2023-05-23T21:25:01.100Z,1.20
2023-05-23T21:27:02.215Z,2.77
2023-05-23T21:29:03.306Z,1.35
2023-05-23T21:31:04.276Z,1.27
2023-05-23T21:33:05.307Z,1.05
2023-05-23T21:35:06.450Z,1.60
2023-05-23T21:37:07.371Z,0.65
2023-05-23T21:39:08.294Z,0.45
2023-05-23T21:41:09.228Z,0.75
2023-05-23T21:43:10.151Z,1.17
2023-05-23T21:45:11.062Z,1.10
2023-05-23T21:47:12.198Z,2.02
2023-05-23T21:49:13.127Z,2.50
2023-05-23T21:51:14.088Z,1.02
2023-05-23T21:53:15.036Z,1.15
2023-05-23T21:55:15.934Z,0.42
2023-05-23T21:57:16.988Z,0.65
2023-05-23T21:59:17.996Z,1.95
2023-05-23T22:01:18.898Z,1.07
2023-05-23T22:03:19.832Z,0.72
2023-05-23T22:05:21.045Z,1.45
2023-05-23T22:07:23.871Z,1.70
2023-05-23T22:09:25.782Z,2.22
2023-05-23T22:11:28.911Z,0.98
2023-05-23T22:13:30.461Z,0.40
2023-05-23T22:15:31.874Z,2.62
2023-05-23T22:17:33.711Z,2.12
2023-05-23T22:19:35.717Z,1.87
2023-05-23T22:21:36.844Z,2.10
2023-05-23T22:23:38.414Z,1.75
2023-05-23T22:25:39.562Z,1.22
2023-05-23T22:27:40.530Z,0.45
2023-05-23T22:29:41.515Z,1.30
2023-05-23T22:31:42.501Z,2.02
2023-05-23T22:33:43.493Z,1.30
2023-05-23T22:35:44.691Z,1.50
2023-05-23T22:37:45.674Z,1.30
2023-05-23T22:39:46.632Z,2.65
2023-05-23T22:41:47.544Z,1.50
2023-05-23T22:43:48.483Z,1.65
2023-05-23T22:45:49.475Z,1.12
2023-05-23T22:47:52.328Z,2.90
2023-05-23T22:49:55.151Z,5.87
2023-05-23T22:51:56.759Z,2.05
2023-05-23T22:53:57.706Z,2.87
2023-05-23T22:55:58.732Z,0.62
2023-05-23T22:57:59.811Z,0.62
2023-05-23T23:00:00.796Z,0.53
2023-05-23T23:02:01.790Z,1.82
2023-05-23T23:04:02.660Z,0.98
2023-05-23T23:06:05.436Z,2.83
2023-05-23T23:08:06.580Z,3.10
2023-05-23T23:10:09.073Z,1.27
2023-05-23T23:12:09.991Z,3.67
2023-05-23T23:14:11.134Z,1.40
2023-05-23T23:16:12.455Z,1.00
2023-05-23T23:18:13.978Z,2.40
2023-05-23T23:20:16.686Z,0.47
2023-05-23T23:22:17.921Z,0.50
2023-05-23T23:24:18.757Z,1.40
2023-05-23T23:26:19.717Z,1.98
2023-05-23T23:28:20.744Z,0.98
2023-05-23T23:30:21.699Z,3.40
2023-05-23T23:32:22.926Z,1.52
2023-05-23T23:34:23.855Z,1.60
2023-05-23T23:36:24.878Z,1.02
2023-05-23T23:38:25.876Z,0.45
2023-05-23T23:40:26.777Z,1.12
2023-05-23T23:42:27.804Z,0.90
2023-05-23T23:44:28.967Z,0.82
2023-05-23T23:46:30.065Z,1.35
2023-05-23T23:48:30.991Z,1.45
2023-05-23T23:50:31.822Z,0.20
2023-05-23T23:52:32.797Z,2.20
2023-05-23T23:54:33.621Z,0.85
2023-05-23T23:56:34.501Z,0.50
2023-05-23T23:58:35.742Z,0.88
